createdAt,value
2017-05-11T00:01:39.857Z,16.62
2017-05-11T00:04:09.056Z,16.18
2017-05-11T00:06:38.090Z,17.96
2017-05-11T00:09:07.182Z,17.40
2017-05-11T00:11:36.216Z,17.16
2017-05-11T00:14:05.260Z,17.90
2017-05-11T00:16:34.296Z,16.58
2017-05-11T00:19:03.342Z,16.84
2017-05-11T00:21:32.393Z,18.66
2017-05-11T00:24:01.477Z,18.06
2017-05-11T00:26:30.533Z,18.04
2017-05-11T00:28:59.605Z,19.52
2017-05-11T00:31:28.739Z,17.74
2017-05-11T00:33:57.806Z,18.76
2017-05-11T00:36:26.845Z,18.04
2017-05-11T00:38:56.636Z,17.78
2017-05-11T00:41:25.695Z,19.08
2017-05-11T00:43:54.812Z,18.76
2017-05-11T00:46:23.903Z,18.84
2017-05-11T00:48:52.938Z,19.26
2017-05-11T00:51:23.012Z,18.78
2017-05-11T00:53:52.936Z,19.64
2017-05-11T00:56:21.981Z,20.14
2017-05-11T00:58:52.238Z,19.88
2017-05-11T01:01:21.300Z,19.62
2017-05-11T01:03:52.425Z,21.20
2017-05-11T01:06:21.557Z,20.48
2017-05-11T01:08:51.036Z,19.78
2017-05-11T01:11:20.076Z,20.16
2017-05-11T01:13:49.291Z,19.18
2017-05-11T01:16:18.340Z,19.88
2017-05-11T01:18:47.392Z,19.74
2017-05-11T01:21:16.435Z,19.74
2017-05-11T01:23:45.505Z,18.38
2017-05-11T01:26:14.553Z,19.44
2017-05-11T01:28:43.593Z,19.18
2017-05-11T01:31:12.625Z,20.68
2017-05-11T01:33:42.271Z,19.98
2017-05-11T01:36:11.321Z,19.20
2017-05-11T01:38:40.366Z,19.32
2017-05-11T01:41:09.420Z,19.62
2017-05-11T01:43:38.473Z,21.28
2017-05-11T01:46:07.529Z,19.68
2017-05-11T01:48:36.571Z,19.64
2017-05-11T01:51:05.617Z,19.56
2017-05-11T01:53:34.657Z,21.06
2017-05-11T01:56:03.693Z,22.02
2017-05-11T01:58:32.949Z,18.96
2017-05-11T02:01:02.019Z,20.96
2017-05-11T02:03:31.056Z,20.38
2017-05-11T02:06:00.091Z,20.78
2017-05-11T02:08:29.380Z,21.02
2017-05-11T02:10:58.733Z,19.80
2017-05-11T02:13:27.769Z,18.82
2017-05-11T02:15:56.809Z,17.24
2017-05-11T02:18:25.868Z,19.28
2017-05-11T02:20:54.946Z,20.16
2017-05-11T02:23:24.015Z,19.08
2017-05-11T02:25:53.090Z,18.44
2017-05-11T02:28:22.130Z,19.40
2017-05-11T02:30:51.192Z,21.00
2017-05-11T02:33:20.236Z,19.26
2017-05-11T02:35:49.267Z,17.50
2017-05-11T02:38:18.334Z,18.80
2017-05-11T02:40:47.381Z,20.54
2017-05-11T02:43:16.496Z,19.26
2017-05-11T02:45:45.552Z,20.94
2017-05-11T02:48:14.612Z,20.52
2017-05-11T02:50:43.689Z,19.72
2017-05-11T02:53:12.726Z,22.12
2017-05-11T02:55:41.782Z,18.12
2017-05-11T02:58:10.825Z,20.46
2017-05-11T03:00:39.871Z,19.94
2017-05-11T03:03:08.930Z,21.90
2017-05-11T03:05:37.996Z,19.36
2017-05-11T03:08:07.070Z,19.92
2017-05-11T03:10:36.110Z,21.54
2017-05-11T03:13:05.922Z,20.78
2017-05-11T03:15:35.735Z,19.92
2017-05-11T03:18:05.541Z,21.96
2017-05-11T03:20:34.640Z,18.68
2017-05-11T03:23:04.512Z,22.28
2017-05-11T03:25:34.853Z,18.54
2017-05-11T03:28:03.915Z,17.98
2017-05-11T03:30:32.953Z,20.86
2017-05-11T03:33:02.053Z,18.88
2017-05-11T03:35:31.093Z,20.50
2017-05-11T03:38:00.331Z,19.98
2017-05-11T03:40:29.416Z,19.70
2017-05-11T03:42:58.464Z,22.02
2017-05-11T03:45:28.240Z,21.24
2017-05-11T03:47:57.313Z,20.58
2017-05-11T03:50:26.357Z,20.48
2017-05-11T03:52:56.136Z,23.02
2017-05-11T03:55:25.203Z,29.64
2017-05-11T03:57:54.283Z,22.88
2017-05-11T04:00:23.359Z,24.32
2017-05-11T04:02:53.137Z,19.84
2017-05-11T04:05:22.220Z,21.54
2017-05-11T04:07:51.272Z,21.72
2017-05-11T04:10:20.333Z,23.04
2017-05-11T04:12:49.386Z,24.40
2017-05-11T04:15:18.431Z,23.98
2017-05-11T04:17:48.482Z,22.20
2017-05-11T04:20:17.521Z,22.38
2017-05-11T04:22:46.599Z,21.82
2017-05-11T04:25:15.668Z,22.44
2017-05-11T04:27:44.700Z,22.12
2017-05-11T04:30:13.752Z,22.12
2017-05-11T04:32:43.326Z,21.68
2017-05-11T04:35:12.617Z,23.14
2017-05-11T04:37:41.993Z,21.68
2017-05-11T04:40:11.057Z,20.92
2017-05-11T04:42:40.112Z,21.76
2017-05-11T04:45:10.054Z,20.42
2017-05-11T04:47:39.839Z,21.94
2017-05-11T04:50:09.104Z,20.98
2017-05-11T04:52:38.165Z,20.10
2017-05-11T04:55:07.246Z,20.58
2017-05-11T04:57:37.032Z,21.20
2017-05-11T05:00:06.075Z,19.38
2017-05-11T05:02:35.127Z,20.40
2017-05-11T05:05:04.210Z,19.82
2017-05-11T05:07:33.252Z,21.66
2017-05-11T05:10:02.326Z,19.92
2017-05-11T05:12:31.372Z,20.48
2017-05-11T05:15:00.408Z,19.88
2017-05-11T05:17:29.597Z,20.04
2017-05-11T05:19:58.677Z,20.54
2017-05-11T05:22:27.721Z,21.90
2017-05-11T05:24:57.606Z,20.16
2017-05-11T05:27:26.684Z,20.04
2017-05-11T05:29:55.718Z,18.74
2017-05-11T05:32:25.516Z,19.84
2017-05-11T05:34:54.587Z,21.60
2017-05-11T05:37:23.643Z,18.58
2017-05-11T05:39:52.715Z,19.00
2017-05-11T05:42:22.765Z,20.66
2017-05-11T05:44:52.564Z,19.06
2017-05-11T05:47:21.613Z,19.98
2017-05-11T05:49:50.732Z,19.56
2017-05-11T05:52:20.516Z,20.26
2017-05-11T05:54:49.553Z,18.66
2017-05-11T05:57:18.865Z,19.52
2017-05-11T05:59:47.953Z,19.54
2017-05-11T06:02:17.017Z,18.84
2017-05-11T06:04:46.090Z,20.76
2017-05-11T06:07:15.140Z,19.50
2017-05-11T06:09:44.196Z,18.40
2017-05-11T06:12:13.255Z,20.00
2017-05-11T06:14:42.313Z,21.32
2017-05-11T06:17:12.453Z,20.28
2017-05-11T06:19:41.495Z,20.80
2017-05-11T06:22:10.537Z,19.98
2017-05-11T06:24:39.597Z,18.44
2017-05-11T06:27:08.653Z,18.98
2017-05-11T06:29:37.708Z,18.18
2017-05-11T06:32:07.498Z,18.52
2017-05-11T06:34:36.555Z,18.66
2017-05-11T06:37:05.621Z,19.32
2017-05-11T06:39:34.683Z,18.70
2017-05-11T06:42:03.729Z,17.96
2017-05-11T06:44:32.806Z,17.88
2017-05-11T06:47:01.870Z,15.96
2017-05-11T06:49:30.920Z,18.84
2017-05-11T06:52:00.029Z,18.72
2017-05-11T06:54:29.081Z,18.86
2017-05-11T06:56:58.165Z,17.74
2017-05-11T06:59:27.971Z,18.28
2017-05-11T07:01:58.137Z,19.98
2017-05-11T07:04:27.212Z,21.14
2017-05-11T07:06:56.861Z,17.78
2017-05-11T07:09:26.129Z,18.26
2017-05-11T07:11:55.193Z,19.06
2017-05-11T07:14:25.073Z,16.90
2017-05-11T07:16:54.162Z,18.06
2017-05-11T07:19:23.204Z,19.00
2017-05-11T07:21:53.050Z,17.58
2017-05-11T07:24:22.242Z,17.16
2017-05-11T07:26:51.462Z,16.18
2017-05-11T07:29:20.534Z,17.02
2017-05-11T07:31:50.050Z,16.80
2017-05-11T07:34:19.125Z,17.72
2017-05-11T07:36:48.323Z,16.04
2017-05-11T07:39:17.726Z,15.58
2017-05-11T07:41:46.777Z,17.22
2017-05-11T07:44:15.833Z,16.08
2017-05-11T07:46:44.877Z,15.48
2017-05-11T07:49:13.926Z,15.24
2017-05-11T07:51:42.978Z,14.90
2017-05-11T07:54:12.951Z,15.20
2017-05-11T07:56:42.111Z,16.24
2017-05-11T07:59:11.209Z,13.78
2017-05-11T08:01:40.277Z,15.50
2017-05-11T08:04:10.163Z,16.28
2017-05-11T08:06:39.218Z,15.48
2017-05-11T08:09:08.293Z,14.38
2017-05-11T08:11:38.095Z,15.48
2017-05-11T08:14:07.895Z,14.40
2017-05-11T08:16:37.703Z,14.58
2017-05-11T08:19:06.757Z,15.68
2017-05-11T08:21:35.821Z,13.68
2017-05-11T08:24:05.621Z,13.64
2017-05-11T08:26:35.426Z,9.82
2017-05-11T08:29:04.494Z,10.56
2017-05-11T08:31:33.560Z,5.58
2017-05-11T08:34:02.637Z,4.48
2017-05-11T08:36:32.426Z,2.96
2017-05-11T08:39:01.491Z,2.70
2017-05-11T08:41:30.539Z,2.96
2017-05-11T08:44:00.097Z,2.50
2017-05-11T08:46:29.156Z,2.58
2017-05-11T08:48:58.561Z,2.46
2017-05-11T08:51:27.612Z,2.80
2017-05-11T08:53:56.652Z,2.50
2017-05-11T08:56:25.720Z,3.20
2017-05-11T08:58:55.521Z,2.40
2017-05-11T09:01:25.349Z,2.90
2017-05-11T09:03:55.134Z,2.34
2017-05-11T09:06:24.966Z,2.94
2017-05-11T09:08:54.757Z,3.00
2017-05-11T09:11:23.805Z,2.56
2017-05-11T09:13:52.925Z,2.62
2017-05-11T09:16:21.974Z,2.80
2017-05-11T09:18:52.277Z,2.48
2017-05-11T09:21:21.321Z,2.28
2017-05-11T09:23:50.447Z,2.40
2017-05-11T09:26:19.700Z,2.72
2017-05-11T09:28:48.777Z,2.48
2017-05-11T09:31:18.577Z,2.90
2017-05-11T09:33:47.644Z,2.08
2017-05-11T09:36:16.697Z,2.24
2017-05-11T09:38:45.736Z,2.18
2017-05-11T09:41:14.785Z,2.30
2017-05-11T09:43:44.045Z,2.86
2017-05-11T09:46:13.129Z,2.96
2017-05-11T09:48:42.204Z,2.08
2017-05-11T09:51:11.240Z,2.70
2017-05-11T09:53:40.339Z,2.56
2017-05-11T09:56:10.153Z,2.96
2017-05-11T09:58:39.971Z,2.68
2017-05-11T10:01:09.792Z,2.34
2017-05-11T10:03:39.609Z,2.40
2017-05-11T10:06:08.688Z,2.70
2017-05-11T10:08:38.494Z,2.22
2017-05-11T10:11:07.555Z,2.64
2017-05-11T10:13:36.633Z,2.90
2017-05-11T10:16:05.692Z,2.84
2017-05-11T10:18:35.479Z,2.70
2017-05-11T10:21:04.525Z,2.76
2017-05-11T10:23:33.559Z,2.66
2017-05-11T10:26:02.601Z,2.68
2017-05-11T10:28:31.655Z,3.06
2017-05-11T10:31:00.729Z,2.44
2017-05-11T10:33:29.789Z,3.16
2017-05-11T10:35:59.042Z,2.64
2017-05-11T10:38:28.097Z,2.60
2017-05-11T10:40:57.175Z,2.86
2017-05-11T10:43:26.225Z,2.98
2017-05-11T10:45:55.307Z,3.04
2017-05-11T10:48:24.342Z,3.00
2017-05-11T10:50:54.133Z,2.90
2017-05-11T10:53:23.488Z,2.14
2017-05-11T10:55:52.621Z,2.30
2017-05-11T10:58:21.714Z,2.50
2017-05-11T11:00:51.217Z,2.76
2017-05-11T11:03:20.268Z,2.74
2017-05-11T11:05:50.348Z,2.56
2017-05-11T11:08:19.415Z,2.50
2017-05-11T11:10:48.493Z,2.68
2017-05-11T11:13:17.535Z,2.46
2017-05-11T11:15:46.805Z,2.10
2017-05-11T11:18:15.856Z,2.46
2017-05-11T11:20:44.895Z,2.40
2017-05-11T11:23:13.939Z,2.62
2017-05-11T11:25:43.015Z,2.46
2017-05-11T11:28:12.070Z,2.66
2017-05-11T11:30:41.107Z,2.60
2017-05-11T11:33:10.180Z,2.60
2017-05-11T11:35:39.226Z,2.76
2017-05-11T11:38:08.289Z,3.20
2017-05-11T11:40:37.340Z,3.12
2017-05-11T11:43:06.389Z,2.42
2017-05-11T11:45:35.463Z,2.90
2017-05-11T11:48:04.509Z,2.92
2017-05-11T11:50:33.565Z,2.54
2017-05-11T11:53:02.635Z,2.42
2017-05-11T11:55:31.697Z,3.36
2017-05-11T11:58:00.742Z,2.68
2017-05-11T12:00:29.796Z,2.16
2017-05-11T12:02:58.868Z,1.76
2017-05-11T12:05:27.925Z,2.32
2017-05-11T12:07:56.964Z,1.94
2017-05-11T12:10:26.012Z,2.10
2017-05-11T12:12:55.057Z,2.04
2017-05-11T12:15:24.334Z,2.00
2017-05-11T12:17:53.393Z,2.00
2017-05-11T12:20:22.463Z,1.38
2017-05-11T12:22:51.516Z,1.80
2017-05-11T12:25:20.595Z,1.90
2017-05-11T12:27:49.728Z,1.20
2017-05-11T12:30:19.058Z,1.50
2017-05-11T12:32:48.265Z,1.54
2017-05-11T12:35:17.342Z,1.74
2017-05-11T12:37:46.421Z,1.56
2017-05-11T12:40:15.490Z,1.60
2017-05-11T12:42:44.537Z,1.48
2017-05-11T12:45:13.582Z,1.40
2017-05-11T12:47:42.641Z,1.46
2017-05-11T12:50:11.765Z,1.30
2017-05-11T12:52:40.821Z,1.64
2017-05-11T12:55:09.866Z,1.70
2017-05-11T12:57:38.938Z,2.12
2017-05-11T13:00:08.004Z,1.82
2017-05-11T13:02:37.066Z,1.36
2017-05-11T13:05:06.145Z,1.50
2017-05-11T13:07:35.193Z,1.60
2017-05-11T13:10:04.226Z,1.34
2017-05-11T13:12:33.280Z,1.64
2017-05-11T13:15:02.342Z,1.50
2017-05-11T13:17:31.418Z,1.84
2017-05-11T13:20:00.502Z,1.38
2017-05-11T13:22:29.564Z,1.38
2017-05-11T13:24:58.716Z,1.70
2017-05-11T13:27:27.832Z,1.50
2017-05-11T13:29:56.882Z,1.40
2017-05-11T13:32:25.968Z,1.84
2017-05-11T13:34:55.025Z,1.58
2017-05-11T13:37:24.124Z,1.70
2017-05-11T13:39:53.171Z,2.06
2017-05-11T13:42:22.242Z,1.56
2017-05-11T13:44:51.320Z,2.10
2017-05-11T13:47:20.370Z,1.40
2017-05-11T13:49:49.452Z,1.78
2017-05-11T13:52:18.506Z,1.30
2017-05-11T13:54:47.565Z,1.34
2017-05-11T13:57:16.635Z,1.52
2017-05-11T13:59:45.725Z,1.66
2017-05-11T14:02:14.786Z,2.12
2017-05-11T14:04:43.849Z,2.10
2017-05-11T14:07:12.923Z,1.50
2017-05-11T14:09:41.985Z,1.62
2017-05-11T14:12:11.130Z,1.76
2017-05-11T14:14:40.192Z,1.52
2017-05-11T14:17:09.268Z,1.92
2017-05-11T14:19:38.306Z,1.80
2017-05-11T14:22:07.382Z,1.98
2017-05-11T14:24:36.445Z,1.90
2017-05-11T14:27:05.509Z,1.74
2017-05-11T14:29:34.573Z,1.88
2017-05-11T14:32:03.660Z,1.54
2017-05-11T14:34:32.728Z,2.04
2017-05-11T14:37:01.788Z,1.54
2017-05-11T14:39:30.835Z,2.04
2017-05-11T14:41:59.906Z,2.20
2017-05-11T14:44:28.961Z,1.84
2017-05-11T14:46:58.022Z,1.90
2017-05-11T14:49:27.071Z,2.22
2017-05-11T14:51:56.133Z,1.96
2017-05-11T14:54:25.198Z,1.90
2017-05-11T14:56:54.314Z,2.06
2017-05-11T14:59:23.387Z,1.92
2017-05-11T15:01:52.693Z,1.96
2017-05-11T15:04:21.753Z,2.10
2017-05-11T15:06:51.405Z,2.18
2017-05-11T15:09:20.688Z,2.04
2017-05-11T15:11:50.144Z,2.00
2017-05-11T15:14:19.218Z,1.98
2017-05-11T15:16:48.276Z,1.96
2017-05-11T15:19:17.352Z,1.96
2017-05-11T15:21:46.409Z,2.28
2017-05-11T15:24:15.446Z,2.16
2017-05-11T15:26:44.516Z,2.48
2017-05-11T15:29:13.594Z,2.12
2017-05-11T15:31:42.632Z,2.58
2017-05-11T15:34:11.693Z,2.36
2017-05-11T15:36:40.781Z,1.80
2017-05-11T15:39:09.838Z,2.10
2017-05-11T15:41:38.885Z,2.34
2017-05-11T15:44:07.932Z,2.14
2017-05-11T15:46:37.205Z,2.08
2017-05-11T15:49:06.275Z,2.08
2017-05-11T15:51:35.321Z,1.96
2017-05-11T15:54:04.429Z,2.10
2017-05-11T15:56:33.485Z,2.26
2017-05-11T15:59:02.542Z,3.06
2017-05-11T16:01:33.966Z,2.00
2017-05-11T16:04:03.016Z,1.80
2017-05-11T16:06:32.118Z,2.36
2017-05-11T16:09:01.169Z,2.34
2017-05-11T16:11:30.236Z,2.28
2017-05-11T16:13:59.378Z,2.40
2017-05-11T16:16:29.172Z,2.26
2017-05-11T16:18:58.242Z,2.26
2017-05-11T16:21:28.080Z,2.22
2017-05-11T16:23:57.135Z,2.20
2017-05-11T16:26:26.176Z,2.10
2017-05-11T16:28:56.049Z,2.10
2017-05-11T16:31:25.122Z,2.50
2017-05-11T16:33:55.544Z,1.88
2017-05-11T16:36:24.620Z,2.52
2017-05-11T16:38:54.068Z,2.20
2017-05-11T16:41:23.141Z,2.18
2017-05-11T16:43:52.225Z,2.90
2017-05-11T16:46:21.290Z,2.06
2017-05-11T16:48:50.521Z,2.40
2017-05-11T16:51:19.566Z,2.10
2017-05-11T16:53:48.639Z,2.10
2017-05-11T16:56:17.761Z,2.30
2017-05-11T16:58:46.816Z,2.42
2017-05-11T17:01:15.883Z,1.76
2017-05-11T17:03:44.952Z,2.38
2017-05-11T17:06:14.017Z,2.10
2017-05-11T17:08:43.082Z,2.28
2017-05-11T17:11:12.893Z,1.82
2017-05-11T17:13:42.081Z,1.90
2017-05-11T17:16:11.152Z,2.08
2017-05-11T17:18:40.197Z,2.24
2017-05-11T17:21:09.291Z,2.52
2017-05-11T17:23:38.353Z,3.16
2017-05-11T17:26:07.436Z,2.52
2017-05-11T17:28:36.473Z,2.38
2017-05-11T17:31:05.531Z,2.48
2017-05-11T17:33:34.622Z,2.24
2017-05-11T17:36:03.664Z,2.20
2017-05-11T17:38:32.752Z,2.50
2017-05-11T17:41:01.869Z,2.50
2017-05-11T17:43:30.919Z,2.40
2017-05-11T17:45:59.982Z,1.92
2017-05-11T17:48:29.033Z,2.60
2017-05-11T17:50:58.157Z,2.44
2017-05-11T17:53:27.441Z,2.58
2017-05-11T17:55:56.468Z,2.82
2017-05-11T17:58:25.525Z,2.58
2017-05-11T18:00:54.732Z,2.60
2017-05-11T18:03:23.831Z,2.16
2017-05-11T18:05:52.881Z,2.48
2017-05-11T18:08:21.929Z,2.50
2017-05-11T18:10:51.153Z,2.12
2017-05-11T18:13:21.214Z,2.78
2017-05-11T18:15:50.510Z,2.06
2017-05-11T18:18:19.564Z,2.32
2017-05-11T18:20:48.632Z,2.38
2017-05-11T18:23:17.705Z,2.10
2017-05-11T18:25:46.758Z,2.42
2017-05-11T18:28:15.843Z,2.40
2017-05-11T18:30:44.940Z,2.72
2017-05-11T18:33:14.013Z,2.68
2017-05-11T18:35:43.087Z,2.54
2017-05-11T18:38:12.184Z,2.26
2017-05-11T18:40:41.245Z,2.42
2017-05-11T18:43:11.039Z,2.18
2017-05-11T18:45:40.202Z,2.44
2017-05-11T18:48:09.323Z,2.54
2017-05-11T18:50:38.394Z,2.70
2017-05-11T18:53:07.756Z,2.28
2017-05-11T18:55:36.835Z,2.06
2017-05-11T18:58:06.737Z,2.32
2017-05-11T19:00:35.812Z,2.20
2017-05-11T19:03:04.864Z,2.14
2017-05-11T19:05:33.947Z,2.68
2017-05-11T19:08:03.759Z,2.22
2017-05-11T19:10:33.575Z,2.36
2017-05-11T19:13:02.629Z,2.32
2017-05-11T19:15:31.693Z,2.40
2017-05-11T19:18:00.767Z,2.32
2017-05-11T19:20:29.856Z,2.16
2017-05-11T19:22:58.942Z,2.46
2017-05-11T19:25:28.961Z,2.26
2017-05-11T19:27:58.804Z,2.06
2017-05-11T19:30:28.464Z,2.12
2017-05-11T19:32:58.278Z,2.00
2017-05-11T19:35:27.349Z,2.62
2017-05-11T19:37:56.550Z,2.52
2017-05-11T19:40:25.642Z,2.26
2017-05-11T19:42:54.716Z,2.86
2017-05-11T19:45:23.794Z,2.32
2017-05-11T19:47:52.875Z,2.54
2017-05-11T19:50:21.938Z,2.60
2017-05-11T19:52:50.986Z,2.88
2017-05-11T19:55:20.049Z,2.72
2017-05-11T19:57:51.419Z,2.44
2017-05-11T20:00:20.656Z,2.40
2017-05-11T20:02:49.702Z,2.34
2017-05-11T20:05:19.545Z,2.94
2017-05-11T20:07:48.637Z,2.16
2017-05-11T20:10:17.709Z,2.30
2017-05-11T20:12:46.773Z,2.22
2017-05-11T20:15:15.859Z,2.30
2017-05-11T20:17:44.900Z,2.62
2017-05-11T20:20:14.005Z,2.86
2017-05-11T20:22:43.894Z,3.40
2017-05-11T20:25:13.724Z,2.74
2017-05-11T20:27:42.808Z,2.60
2017-05-11T20:30:11.872Z,2.52
2017-05-11T20:32:40.948Z,2.30
2017-05-11T20:35:10.051Z,2.38
2017-05-11T20:37:39.111Z,2.70
2017-05-11T20:40:08.590Z,2.10
2017-05-11T20:42:37.656Z,2.26
2017-05-11T20:45:06.709Z,2.54
2017-05-11T20:47:35.814Z,2.16
2017-05-11T20:50:04.873Z,2.20
2017-05-11T20:52:34.686Z,2.30
2017-05-11T20:55:04.485Z,1.88
2017-05-11T20:57:34.320Z,2.40
2017-05-11T21:00:03.381Z,2.38
2017-05-11T21:02:32.452Z,2.32
2017-05-11T21:05:01.512Z,2.34
2017-05-11T21:07:30.590Z,2.26
2017-05-11T21:10:00.381Z,2.38
2017-05-11T21:12:30.185Z,2.00
2017-05-11T21:14:59.579Z,2.34
2017-05-11T21:17:28.632Z,2.30
2017-05-11T21:19:57.713Z,1.70
2017-05-11T21:22:26.781Z,2.30
2017-05-11T21:24:55.840Z,1.96
2017-05-11T21:27:24.913Z,2.10
2017-05-11T21:29:53.967Z,2.20
2017-05-11T21:32:23.024Z,2.22
2017-05-11T21:34:52.608Z,2.04
2017-05-11T21:37:21.802Z,1.90
2017-05-11T21:39:51.001Z,1.60
2017-05-11T21:42:20.330Z,2.30
2017-05-11T21:44:49.616Z,2.36
2017-05-11T21:47:18.920Z,1.84
2017-05-11T21:49:48.224Z,1.96
2017-05-11T21:52:17.264Z,1.72
2017-05-11T21:54:47.072Z,2.00
2017-05-11T21:57:16.444Z,1.98
2017-05-11T21:59:45.476Z,1.44
2017-05-11T22:02:15.262Z,1.70
2017-05-11T22:04:44.344Z,1.60
2017-05-11T22:07:13.422Z,1.72
2017-05-11T22:09:42.484Z,1.68
2017-05-11T22:12:12.285Z,2.00
2017-05-11T22:14:42.089Z,1.62
2017-05-11T22:17:11.155Z,1.64
2017-05-11T22:19:40.187Z,1.96
2017-05-11T22:22:09.989Z,1.80
2017-05-11T22:24:39.360Z,1.60
2017-05-11T22:27:08.440Z,2.02
2017-05-11T22:29:37.547Z,1.38
2017-05-11T22:32:06.593Z,1.80
2017-05-11T22:34:36.451Z,2.06
2017-05-11T22:37:06.212Z,1.68
2017-05-11T22:39:36.021Z,1.84
2017-05-11T22:42:05.109Z,1.46
2017-05-11T22:44:34.191Z,1.90
2017-05-11T22:47:03.247Z,2.10
2017-05-11T22:49:32.296Z,1.72
2017-05-11T22:52:01.336Z,1.86
2017-05-11T22:54:30.652Z,2.38
2017-05-11T22:56:59.733Z,1.50
2017-05-11T22:59:29.017Z,1.66
2017-05-11T23:01:58.074Z,2.16
2017-05-11T23:04:27.122Z,2.36
2017-05-11T23:06:56.194Z,2.62
2017-05-11T23:09:25.984Z,2.26
2017-05-11T23:11:55.041Z,2.02
2017-05-11T23:14:24.318Z,2.58
2017-05-11T23:16:53.385Z,2.52
2017-05-11T23:19:23.182Z,2.16
2017-05-11T23:21:52.268Z,2.10
2017-05-11T23:24:21.323Z,1.92
2017-05-11T23:26:50.937Z,2.60
2017-05-11T23:29:19.987Z,2.52
2017-05-11T23:31:50.177Z,3.02
2017-05-11T23:34:19.241Z,2.30
2017-05-11T23:36:48.281Z,2.72
2017-05-11T23:39:17.339Z,2.26
2017-05-11T23:41:46.413Z,2.12
2017-05-11T23:44:15.453Z,2.32
2017-05-11T23:46:44.541Z,2.20
2017-05-11T23:49:13.597Z,2.00
2017-05-11T23:51:42.801Z,2.20
2017-05-11T23:54:11.846Z,2.30
2017-05-11T23:56:40.901Z,2.50
2017-05-11T23:59:09.974Z,2.10
